createdAt,value
2017-12-04T00:00:46.754Z,6.40
2017-12-04T00:02:27.508Z,6.50
2017-12-04T00:04:11.694Z,6.50
2017-12-04T00:05:51.564Z,6.40
2017-12-04T00:07:31.462Z,6.40
2017-12-04T00:09:10.966Z,6.40
2017-12-04T00:10:49.299Z,6.30
2017-12-04T00:12:27.878Z,6.30
2017-12-04T00:14:07.378Z,6.50
2017-12-04T00:15:46.678Z,6.20
2017-12-04T00:17:26.983Z,6.40
2017-12-04T00:19:06.584Z,6.50
2017-12-04T00:20:45.392Z,6.50
2017-12-04T00:22:29.302Z,6.40
2017-12-04T00:24:13.710Z,6.40
2017-12-04T00:27:25.388Z,6.50
2017-12-04T00:29:06.798Z,6.50
2017-12-04T00:30:45.392Z,6.00
2017-12-04T00:32:24.790Z,6.40
2017-12-04T00:34:03.895Z,6.70
2017-12-04T00:35:42.292Z,7.00
2017-12-04T00:37:23.576Z,7.20
2017-12-04T00:40:42.982Z,6.90
2017-12-04T00:42:22.667Z,6.90
2017-12-04T00:44:01.687Z,6.80
2017-12-04T00:45:40.570Z,6.90
2017-12-04T00:47:20.564Z,6.70
2017-12-04T00:48:59.975Z,6.80
2017-12-04T00:50:40.665Z,6.80
2017-12-04T00:52:20.878Z,6.80
2017-12-04T00:53:59.923Z,6.80
2017-12-04T00:55:46.978Z,6.80
2017-12-04T00:57:26.781Z,6.80
2017-12-04T00:59:05.978Z,6.70
2017-12-04T01:00:46.879Z,6.60
2017-12-04T01:02:25.867Z,6.60
2017-12-04T01:04:04.773Z,6.60
2017-12-04T01:05:44.162Z,6.80
2017-12-04T01:07:23.474Z,6.70
2017-12-04T01:09:03.109Z,6.80
2017-12-04T01:10:43.465Z,6.90
2017-12-04T01:12:23.178Z,6.80
2017-12-04T01:14:04.275Z,6.80
2017-12-04T01:15:44.359Z,6.80
2017-12-04T01:17:24.358Z,6.60
2017-12-04T01:19:08.279Z,6.90
2017-12-04T01:20:47.473Z,6.80
2017-12-04T01:22:26.772Z,7.00
2017-12-04T01:24:06.186Z,6.90
2017-12-04T01:25:44.571Z,6.90
2017-12-04T01:27:24.875Z,6.80
2017-12-04T01:29:04.498Z,6.60
2017-12-04T01:30:44.767Z,6.60
2017-12-04T01:32:27.875Z,6.60
2017-12-04T01:34:18.583Z,7.00
2017-12-04T01:35:58.516Z,7.00
2017-12-04T01:37:38.377Z,7.00
2017-12-04T01:39:16.782Z,6.90
2017-12-04T01:40:55.769Z,7.10
2017-12-04T01:42:35.995Z,7.20
2017-12-04T01:44:23.078Z,7.10
2017-12-04T01:46:03.381Z,7.00
2017-12-04T01:47:46.877Z,7.10
2017-12-04T01:49:27.377Z,7.10
2017-12-04T01:51:06.681Z,7.10
2017-12-04T01:52:46.788Z,7.10
2017-12-04T01:54:26.247Z,6.80
2017-12-04T01:56:06.782Z,6.80
2017-12-04T01:57:46.305Z,6.90
2017-12-04T01:59:24.904Z,6.90
2017-12-04T02:01:04.978Z,6.60
2017-12-04T02:02:46.585Z,6.80
2017-12-04T02:04:25.882Z,6.90
2017-12-04T02:06:05.080Z,6.90
2017-12-04T02:07:43.988Z,6.70
2017-12-04T02:09:23.593Z,6.80
2017-12-04T02:11:02.140Z,6.80
2017-12-04T02:12:41.289Z,6.80
2017-12-04T02:14:20.391Z,6.80
2017-12-04T02:15:59.706Z,7.00
2017-12-04T02:17:40.301Z,7.00
2017-12-04T02:19:22.912Z,7.20
2017-12-04T02:21:03.432Z,7.40
2017-12-04T02:22:42.918Z,7.10
2017-12-04T02:24:21.746Z,7.20
2017-12-04T02:26:00.818Z,7.40
2017-12-04T02:27:40.336Z,7.30
2017-12-04T02:29:19.347Z,7.10
2017-12-04T02:30:58.421Z,6.60
2017-12-04T02:32:39.739Z,6.70
2017-12-04T02:34:20.126Z,7.00
2017-12-04T02:35:59.834Z,7.20
2017-12-04T02:37:39.131Z,7.20
2017-12-04T02:39:19.338Z,7.20
2017-12-04T02:40:59.235Z,7.10
2017-12-04T02:42:39.251Z,7.40
2017-12-04T02:44:18.543Z,7.60
2017-12-04T02:45:58.942Z,7.50
2017-12-04T02:47:38.137Z,7.50
2017-12-04T02:49:18.437Z,7.50
2017-12-04T02:50:57.440Z,7.30
2017-12-04T02:52:39.088Z,6.50
2017-12-04T02:54:20.866Z,6.30
2017-12-04T02:56:00.658Z,6.30
2017-12-04T02:57:39.968Z,6.30
2017-12-04T02:59:20.178Z,7.10
2017-12-04T03:00:59.567Z,7.10
2017-12-04T03:02:38.548Z,7.20
2017-12-04T03:04:18.245Z,7.30
2017-12-04T03:05:57.991Z,7.40
2017-12-04T03:07:37.045Z,7.40
2017-12-04T03:09:17.579Z,7.30
2017-12-04T03:10:56.380Z,7.20
2017-12-04T03:12:36.336Z,7.40
2017-12-04T03:14:14.837Z,7.40
2017-12-04T03:17:39.536Z,7.50
2017-12-04T03:19:19.544Z,7.00
2017-12-04T03:20:58.839Z,6.90
2017-12-04T03:22:39.555Z,7.20
2017-12-04T03:24:18.891Z,7.30
2017-12-04T03:26:01.056Z,7.10
2017-12-04T03:27:40.774Z,7.00
2017-12-04T03:29:20.756Z,6.90
2017-12-04T03:31:01.639Z,6.80
2017-12-04T03:32:40.569Z,6.80
2017-12-04T03:34:21.034Z,6.80
2017-12-04T03:36:00.399Z,6.90
2017-12-04T03:37:40.270Z,7.00
2017-12-04T03:39:19.467Z,7.10
2017-12-04T03:41:00.075Z,7.10
2017-12-04T03:42:38.880Z,7.00
2017-12-04T03:44:23.385Z,7.10
2017-12-04T03:46:02.586Z,7.00
2017-12-04T03:47:41.259Z,7.20
2017-12-04T03:49:20.189Z,7.20
2017-12-04T03:50:58.985Z,7.00
2017-12-04T03:52:37.480Z,6.90
2017-12-04T03:54:15.991Z,7.20
2017-12-04T03:55:54.480Z,7.30
2017-12-04T03:57:35.905Z,7.20
2017-12-04T03:59:14.382Z,7.20
2017-12-04T04:00:53.872Z,7.20
2017-12-04T04:02:33.999Z,7.20
2017-12-04T04:04:17.179Z,7.50
2017-12-04T04:05:56.496Z,7.50
2017-12-04T04:07:35.302Z,7.60
2017-12-04T04:09:14.370Z,7.50
2017-12-04T04:10:54.584Z,7.50
2017-12-04T04:12:34.776Z,7.50
2017-12-04T04:14:13.513Z,7.50
2017-12-04T04:15:53.280Z,7.40
2017-12-04T04:17:31.887Z,7.50
2017-12-04T04:19:11.285Z,7.50
2017-12-04T04:20:50.691Z,7.50
2017-12-04T04:22:29.079Z,7.50
2017-12-04T04:24:07.694Z,7.50
2017-12-04T04:25:48.779Z,7.50
2017-12-04T04:27:27.687Z,7.50
2017-12-04T04:29:06.596Z,7.60
2017-12-04T04:30:45.390Z,7.60
2017-12-04T04:32:23.884Z,7.60
2017-12-04T04:34:09.970Z,7.60
2017-12-04T04:35:49.161Z,7.00
2017-12-04T04:37:27.662Z,7.00
2017-12-04T04:39:06.352Z,7.20
2017-12-04T04:40:47.354Z,7.70
2017-12-04T04:42:27.649Z,7.70
2017-12-04T04:45:52.056Z,7.70
2017-12-04T04:49:05.748Z,7.60
2017-12-04T04:50:46.155Z,7.60
2017-12-04T04:52:25.774Z,7.60
2017-12-04T04:54:04.482Z,7.50
2017-12-04T04:55:42.754Z,7.50
2017-12-04T04:57:21.949Z,7.20
2017-12-04T04:59:00.861Z,7.30
2017-12-04T05:00:39.963Z,7.10
2017-12-04T05:02:18.445Z,6.80
2017-12-04T05:03:56.945Z,6.80
2017-12-04T05:05:38.944Z,7.10
2017-12-04T05:07:17.256Z,7.10
2017-12-04T05:08:56.353Z,7.30
2017-12-04T05:10:38.260Z,7.40
2017-12-04T05:12:18.781Z,7.10
2017-12-04T05:13:57.353Z,7.50
2017-12-04T05:15:36.955Z,8.00
2017-12-04T05:17:16.459Z,8.00
2017-12-04T05:18:56.054Z,7.80
2017-12-04T05:20:36.381Z,7.60
2017-12-04T05:22:15.098Z,7.50
2017-12-04T05:23:53.960Z,7.40
2017-12-04T05:25:33.850Z,7.30
2017-12-04T05:27:12.445Z,7.20
2017-12-04T05:30:36.686Z,7.70
2017-12-04T05:32:28.411Z,7.70
2017-12-04T05:34:07.232Z,7.80
2017-12-04T05:35:45.434Z,7.80
2017-12-04T05:37:24.441Z,7.70
2017-12-04T05:39:03.141Z,7.60
2017-12-04T05:40:41.441Z,7.50
2017-12-04T05:42:19.949Z,7.70
2017-12-04T05:44:01.047Z,7.60
2017-12-04T05:45:41.555Z,7.50
2017-12-04T05:47:20.359Z,7.50
2017-12-04T05:48:58.858Z,7.60
2017-12-04T05:50:38.582Z,7.50
2017-12-04T05:52:21.473Z,7.60
2017-12-04T05:54:02.176Z,7.70
2017-12-04T05:55:40.676Z,7.70
2017-12-04T05:57:20.151Z,7.90
2017-12-04T05:58:58.851Z,7.80
2017-12-04T06:00:37.336Z,7.70
2017-12-04T06:02:16.269Z,7.90
2017-12-04T06:03:54.336Z,7.90
2017-12-04T06:05:34.035Z,8.10
2017-12-04T06:07:13.435Z,8.20
2017-12-04T06:08:52.752Z,8.20
2017-12-04T06:10:32.245Z,8.20
2017-12-04T06:12:11.446Z,8.10
2017-12-04T06:13:52.682Z,8.10
2017-12-04T06:15:37.767Z,8.00
2017-12-04T06:17:17.655Z,8.00
2017-12-04T06:18:56.363Z,7.90
2017-12-04T06:22:33.693Z,7.70
2017-12-04T06:24:12.472Z,7.80
2017-12-04T06:25:51.877Z,7.80
2017-12-04T06:27:31.284Z,7.60
2017-12-04T06:29:10.880Z,7.60
2017-12-04T06:30:50.885Z,7.50
2017-12-04T06:32:30.690Z,7.50
2017-12-04T06:34:09.026Z,7.50
2017-12-04T06:35:47.998Z,7.40
2017-12-04T06:37:27.311Z,7.40
2017-12-04T06:39:06.508Z,7.40
2017-12-04T06:40:44.708Z,7.50
2017-12-04T06:42:23.531Z,7.50
2017-12-04T06:44:01.918Z,7.50
2017-12-04T06:45:40.215Z,7.40
2017-12-04T06:47:19.734Z,7.40
2017-12-04T06:49:00.214Z,7.30
2017-12-04T06:50:39.301Z,7.30
2017-12-04T06:52:19.902Z,7.60
2017-12-04T06:54:00.706Z,7.60
2017-12-04T06:55:40.717Z,7.70
2017-12-04T06:57:19.089Z,7.70
2017-12-04T06:58:58.702Z,7.70
2017-12-04T07:00:38.790Z,7.50
2017-12-04T07:02:17.189Z,7.60
2017-12-04T07:03:56.379Z,7.70
2017-12-04T07:05:35.493Z,7.90
2017-12-04T07:07:14.181Z,7.90
2017-12-04T07:08:52.500Z,7.90
2017-12-04T07:10:32.489Z,8.00
2017-12-04T07:12:11.684Z,8.10
2017-12-04T07:13:50.489Z,8.10
2017-12-04T07:15:29.294Z,8.10
2017-12-04T07:17:08.589Z,7.60
2017-12-04T07:18:47.489Z,7.50
2017-12-04T07:20:26.789Z,7.50
2017-12-04T07:22:18.985Z,7.50
2017-12-04T07:23:59.690Z,7.50
2017-12-04T07:25:39.985Z,7.40
2017-12-04T07:27:18.166Z,7.50
2017-12-04T07:28:57.069Z,7.50
2017-12-04T07:30:35.384Z,7.50
2017-12-04T07:32:14.058Z,7.50
2017-12-04T07:33:52.568Z,7.50
2017-12-04T07:35:31.149Z,7.50
2017-12-04T07:37:09.248Z,7.50
2017-12-04T07:38:48.253Z,7.50
2017-12-04T07:40:27.257Z,7.50
2017-12-04T07:42:05.350Z,7.70
2017-12-04T07:43:43.745Z,7.90
2017-12-04T07:45:22.187Z,8.00
2017-12-04T07:47:00.951Z,8.20
2017-12-04T07:48:39.244Z,8.30
2017-12-04T07:50:17.751Z,8.30
2017-12-04T07:52:02.350Z,8.30
2017-12-04T07:53:42.043Z,8.40
2017-12-04T07:55:25.346Z,8.60
2017-12-04T07:57:08.652Z,8.60
2017-12-04T07:58:51.060Z,8.60
2017-12-04T08:00:30.165Z,8.70
2017-12-04T08:02:10.795Z,8.60
2017-12-04T08:03:52.673Z,8.50
2017-12-04T08:05:35.219Z,8.50
2017-12-04T08:07:16.386Z,8.60
2017-12-04T08:08:56.814Z,8.40
2017-12-04T08:10:36.703Z,8.30
2017-12-04T08:12:17.005Z,8.50
2017-12-04T08:13:55.701Z,8.60
2017-12-04T08:15:48.429Z,8.60
2017-12-04T08:17:33.733Z,8.50
2017-12-04T08:19:16.703Z,8.50
2017-12-04T08:20:57.000Z,8.40
2017-12-04T08:22:37.902Z,8.40
2017-12-04T08:24:17.404Z,8.40
2017-12-04T08:26:13.904Z,8.30
2017-12-04T08:27:53.409Z,8.30
2017-12-04T08:29:32.709Z,8.30
2017-12-04T08:31:12.319Z,8.40
2017-12-04T08:32:53.056Z,8.30
2017-12-04T08:34:31.998Z,8.20
2017-12-04T08:36:13.143Z,8.30
2017-12-04T08:37:52.389Z,8.40
2017-12-04T08:39:35.453Z,8.10
2017-12-04T08:41:15.510Z,8.10
2017-12-04T08:42:55.592Z,8.00
2017-12-04T08:44:35.084Z,8.20
2017-12-04T08:46:13.678Z,8.20
2017-12-04T08:47:52.483Z,8.20
2017-12-04T08:49:30.890Z,8.30
2017-12-04T08:51:09.395Z,8.50
2017-12-04T08:52:47.482Z,8.60
2017-12-04T08:54:26.582Z,8.60
2017-12-04T08:56:06.909Z,8.50
2017-12-04T08:57:46.088Z,8.50
2017-12-04T08:59:25.078Z,8.60
2017-12-04T09:01:05.942Z,8.00
2017-12-04T09:02:48.780Z,8.00
2017-12-04T09:04:28.083Z,8.40
2017-12-04T09:06:07.402Z,8.40
2017-12-04T09:07:47.807Z,8.50
2017-12-04T09:09:29.513Z,8.80
2017-12-04T09:11:09.004Z,8.80
2017-12-04T09:12:47.410Z,8.70
2017-12-04T09:14:26.513Z,9.00
2017-12-04T09:16:05.027Z,8.90
2017-12-04T09:17:44.641Z,8.90
2017-12-04T09:19:22.824Z,8.90
2017-12-04T09:21:01.235Z,8.80
2017-12-04T09:22:40.532Z,8.80
2017-12-04T09:24:19.127Z,8.80
2017-12-04T09:25:58.366Z,8.80
2017-12-04T09:27:38.130Z,8.80
2017-12-04T09:29:16.738Z,8.70
2017-12-04T09:30:55.331Z,8.70
2017-12-04T09:32:34.729Z,8.80
2017-12-04T09:34:14.271Z,9.00
2017-12-04T09:35:54.942Z,9.00
2017-12-04T09:37:35.048Z,8.90
2017-12-04T09:39:13.734Z,8.90
2017-12-04T09:40:52.022Z,9.10
2017-12-04T09:42:30.924Z,9.10
2017-12-04T09:44:09.045Z,9.00
2017-12-04T09:45:48.217Z,9.00
2017-12-04T09:47:27.312Z,9.10
2017-12-04T09:49:06.319Z,9.30
2017-12-04T09:50:45.708Z,9.50
2017-12-04T09:52:24.812Z,9.50
2017-12-04T09:54:03.106Z,9.50
2017-12-04T09:55:43.609Z,9.50
2017-12-04T09:57:23.115Z,9.40
2017-12-04T09:59:01.304Z,9.00
2017-12-04T10:00:40.908Z,9.20
2017-12-04T10:02:20.405Z,9.50
2017-12-04T10:04:02.622Z,9.50
2017-12-04T10:05:42.218Z,9.60
2017-12-04T10:07:21.935Z,9.80
2017-12-04T10:09:00.134Z,9.80
2017-12-04T10:10:38.402Z,9.70
2017-12-04T10:12:16.902Z,9.70
2017-12-04T10:13:54.898Z,9.80
2017-12-04T10:15:34.114Z,9.80
2017-12-04T10:17:13.615Z,9.40
2017-12-04T10:20:35.197Z,9.30
2017-12-04T10:22:13.595Z,9.00
2017-12-04T10:25:19.691Z,8.90
2017-12-04T10:26:58.101Z,8.90
2017-12-04T10:28:36.608Z,8.90
2017-12-04T10:30:15.411Z,8.80
2017-12-04T10:31:54.840Z,8.70
2017-12-04T10:33:34.927Z,8.50
2017-12-04T10:35:13.603Z,8.60
2017-12-04T10:36:52.305Z,8.90
2017-12-04T10:38:29.510Z,9.00
2017-12-04T10:40:09.395Z,9.00
2017-12-04T10:41:49.195Z,9.10
2017-12-04T10:43:27.705Z,9.00
2017-12-04T10:45:13.202Z,8.90
2017-12-04T10:46:50.035Z,9.00
2017-12-04T10:48:26.542Z,9.10
2017-12-04T10:50:05.626Z,9.10
2017-12-04T10:51:44.525Z,9.00
2017-12-04T10:53:23.138Z,9.10
2017-12-04T10:55:01.674Z,9.10
2017-12-04T10:56:47.960Z,9.30
2017-12-04T10:58:31.449Z,9.20
2017-12-04T11:00:11.467Z,9.20
2017-12-04T11:01:51.370Z,9.30
2017-12-04T11:03:30.971Z,9.30
2017-12-04T11:05:09.760Z,9.10
2017-12-04T11:06:49.163Z,9.30
2017-12-04T11:08:28.369Z,9.40
2017-12-04T11:10:08.573Z,9.50
2017-12-04T11:11:47.529Z,9.60
2017-12-04T11:13:28.191Z,9.60
2017-12-04T11:15:07.682Z,9.60
2017-12-04T11:16:47.077Z,9.60
2017-12-04T11:18:25.780Z,9.50
2017-12-04T11:20:05.286Z,9.20
2017-12-04T11:21:46.667Z,9.20
2017-12-04T11:23:24.850Z,9.20
2017-12-04T11:25:02.125Z,9.20
2017-12-04T11:26:40.248Z,9.30
2017-12-04T11:28:20.446Z,9.30
2017-12-04T11:29:59.072Z,9.30
2017-12-04T11:31:41.439Z,9.20
2017-12-04T11:33:22.629Z,9.50
2017-12-04T11:35:05.140Z,9.50
2017-12-04T11:36:44.146Z,9.70
2017-12-04T11:38:22.636Z,9.60
2017-12-04T11:40:01.060Z,9.90
2017-12-04T11:41:41.334Z,9.90
2017-12-04T11:43:21.339Z,9.90
2017-12-04T11:45:00.934Z,9.80
2017-12-04T11:46:40.742Z,9.70
2017-12-04T11:48:17.724Z,9.80
2017-12-04T11:49:54.342Z,9.80
2017-12-04T11:51:34.021Z,9.80
2017-12-04T11:53:14.052Z,9.80
2017-12-04T11:54:53.231Z,9.90
2017-12-04T11:56:30.169Z,9.90
2017-12-04T11:58:06.760Z,9.90
2017-12-04T11:59:43.986Z,10.00
2017-12-04T12:01:23.675Z,10.00
2017-12-04T12:03:03.775Z,10.00
2017-12-04T12:04:42.510Z,10.10
2017-12-04T12:06:20.994Z,9.80
2017-12-04T12:07:57.707Z,9.90
2017-12-04T12:09:35.090Z,10.00
2017-12-04T12:11:14.688Z,10.00
2017-12-04T12:12:56.102Z,10.20
2017-12-04T12:14:35.499Z,10.20
2017-12-04T12:16:15.295Z,10.30
2017-12-04T12:17:53.809Z,10.20
2017-12-04T12:19:32.302Z,10.30
2017-12-04T12:21:11.622Z,10.30
2017-12-04T12:22:50.508Z,10.20
2017-12-04T12:24:29.911Z,10.20
2017-12-04T12:26:08.414Z,10.10
2017-12-04T12:27:47.930Z,10.10
2017-12-04T12:29:27.010Z,10.10
2017-12-04T12:31:05.909Z,10.00
2017-12-04T12:32:45.506Z,9.80
2017-12-04T12:34:24.700Z,9.80
2017-12-04T12:36:04.103Z,9.90
2017-12-04T12:37:43.240Z,9.90
2017-12-04T12:39:21.992Z,9.90
2017-12-04T12:41:01.198Z,10.00
2017-12-04T12:42:39.910Z,10.00
2017-12-04T12:44:21.004Z,10.10
2017-12-04T12:45:59.496Z,10.10
2017-12-04T12:47:39.603Z,10.20
2017-12-04T12:49:19.195Z,10.30
2017-12-04T12:50:59.411Z,10.30
2017-12-04T12:52:37.900Z,10.10
2017-12-04T12:54:19.201Z,9.90
2017-12-04T12:55:57.361Z,9.90
2017-12-04T12:57:38.008Z,9.90
2017-12-04T12:59:16.196Z,9.70
2017-12-04T13:00:55.697Z,10.00
2017-12-04T13:02:36.297Z,10.00
2017-12-04T13:04:15.415Z,10.10
2017-12-04T13:05:57.252Z,10.20
2017-12-04T13:07:35.312Z,10.00
2017-12-04T13:09:16.199Z,10.20
2017-12-04T13:10:56.499Z,10.10
2017-12-04T13:12:36.593Z,10.10
2017-12-04T13:14:16.393Z,10.30
2017-12-04T13:15:55.494Z,10.20
2017-12-04T13:17:35.232Z,10.20
2017-12-04T13:19:17.796Z,10.20
2017-12-04T13:20:56.998Z,10.20
2017-12-04T13:22:35.609Z,10.30
2017-12-04T13:24:17.202Z,10.30
2017-12-04T13:25:56.561Z,10.30
2017-12-04T13:27:36.196Z,10.30
2017-12-04T13:29:14.295Z,10.30
2017-12-04T13:30:54.101Z,10.30
2017-12-04T13:32:46.298Z,10.30
2017-12-04T13:34:42.623Z,10.30
2017-12-04T13:36:57.008Z,10.30
2017-12-04T13:38:37.605Z,10.20
2017-12-04T13:40:16.509Z,10.20
2017-12-04T13:41:53.429Z,10.10
2017-12-04T13:43:31.395Z,10.00
2017-12-04T13:45:12.739Z,10.10
2017-12-04T13:46:51.698Z,10.20
2017-12-04T13:48:32.199Z,10.30
2017-12-04T13:50:10.990Z,10.20
2017-12-04T13:51:51.003Z,10.20
2017-12-04T13:53:30.500Z,10.30
2017-12-04T13:55:08.897Z,10.10
2017-12-04T13:56:47.694Z,10.00
2017-12-04T13:58:28.889Z,10.30
2017-12-04T14:00:08.900Z,10.30
2017-12-04T14:01:48.502Z,10.40
2017-12-04T14:03:31.223Z,10.30
2017-12-04T14:05:09.150Z,10.40
2017-12-04T14:06:45.738Z,10.30
2017-12-04T14:08:23.102Z,10.20
2017-12-04T14:10:01.696Z,10.10
2017-12-04T14:11:50.178Z,10.00
2017-12-04T14:13:39.213Z,10.00
2017-12-04T14:15:21.819Z,10.40
2017-12-04T14:17:01.116Z,10.40
2017-12-04T14:18:42.039Z,10.40
2017-12-04T14:20:22.529Z,10.10
2017-12-04T14:22:00.836Z,10.40
2017-12-04T14:23:42.040Z,10.50
2017-12-04T14:25:20.742Z,10.50
2017-12-04T14:27:00.443Z,10.40
2017-12-04T14:28:39.558Z,10.40
2017-12-04T14:30:21.467Z,10.40
2017-12-04T14:32:01.201Z,10.50
2017-12-04T14:33:41.373Z,10.50
2017-12-04T14:35:20.970Z,10.50
2017-12-04T14:37:01.875Z,10.30
2017-12-04T14:38:42.488Z,10.30
2017-12-04T14:40:22.079Z,10.60
2017-12-04T14:42:01.009Z,10.60
2017-12-04T14:43:40.517Z,10.70
2017-12-04T14:45:22.973Z,10.70
2017-12-04T14:47:03.772Z,10.70
2017-12-04T14:48:43.974Z,10.90
2017-12-04T14:50:24.975Z,11.00
2017-12-04T14:52:03.953Z,10.80
2017-12-04T14:53:44.164Z,10.60
2017-12-04T14:55:23.352Z,10.50
2017-12-04T14:57:04.383Z,10.50
2017-12-04T14:58:42.964Z,10.50
2017-12-04T15:00:22.853Z,10.40
2017-12-04T15:02:01.947Z,10.60
2017-12-04T15:03:42.766Z,10.70
2017-12-04T15:05:21.849Z,10.50
2017-12-04T15:07:06.017Z,10.30
2017-12-04T15:08:47.850Z,10.20
2017-12-04T15:10:26.801Z,10.20
2017-12-04T15:12:06.248Z,9.90
2017-12-04T15:13:45.253Z,9.90
2017-12-04T15:15:24.579Z,10.10
2017-12-04T15:17:04.364Z,10.10
2017-12-04T15:18:43.552Z,10.10
2017-12-04T15:20:24.953Z,10.20
2017-12-04T15:22:04.948Z,10.40
2017-12-04T15:23:45.058Z,10.60
2017-12-04T15:25:24.048Z,10.80
2017-12-04T15:27:03.648Z,10.70
2017-12-04T15:28:43.344Z,10.70
2017-12-04T15:30:23.344Z,10.60
2017-12-04T15:32:04.145Z,10.60
2017-12-04T15:33:44.336Z,10.60
2017-12-04T15:36:57.568Z,10.70
2017-12-04T15:38:36.960Z,10.60
2017-12-04T15:40:15.651Z,10.60
2017-12-04T15:41:54.440Z,10.60
2017-12-04T15:43:33.636Z,10.40
2017-12-04T15:45:21.688Z,10.10
2017-12-04T15:47:03.363Z,10.10
2017-12-04T15:48:46.551Z,10.40
2017-12-04T15:50:27.340Z,10.50
2017-12-04T15:52:06.945Z,10.60
2017-12-04T15:53:46.845Z,10.70
2017-12-04T15:55:28.265Z,10.70
2017-12-04T15:57:09.470Z,10.70
2017-12-04T15:58:53.179Z,10.60
2017-12-04T16:00:35.915Z,10.10
2017-12-04T16:02:15.579Z,10.30
2017-12-04T16:05:48.096Z,10.40
2017-12-04T16:07:31.663Z,10.40
2017-12-04T16:09:15.919Z,10.40
2017-12-04T16:10:58.310Z,10.30
2017-12-04T16:12:39.457Z,10.10
2017-12-04T16:14:19.814Z,9.80
2017-12-04T16:16:04.805Z,9.80
2017-12-04T16:19:22.335Z,9.80
2017-12-04T16:21:03.801Z,9.90
2017-12-04T16:22:45.345Z,10.00
2017-12-04T16:24:25.754Z,10.10
2017-12-04T16:26:05.334Z,10.10
2017-12-04T16:27:46.018Z,10.10
2017-12-04T16:29:31.623Z,10.10
2017-12-04T16:31:15.520Z,10.00
2017-12-04T16:32:58.266Z,10.20
2017-12-04T16:34:48.627Z,10.20
2017-12-04T16:36:27.833Z,10.20
2017-12-04T16:38:07.210Z,10.20
2017-12-04T16:39:50.458Z,10.10
2017-12-04T16:41:40.320Z,10.10
2017-12-04T16:43:23.509Z,10.10
2017-12-04T16:45:06.308Z,10.00
2017-12-04T16:46:46.713Z,9.80
2017-12-04T16:48:34.927Z,9.80
2017-12-04T16:50:16.721Z,10.00
2017-12-04T16:51:57.253Z,9.90
2017-12-04T16:53:37.017Z,9.90
2017-12-04T16:55:15.708Z,10.20
2017-12-04T16:56:55.018Z,10.20
2017-12-04T16:58:33.945Z,10.20
2017-12-04T17:00:18.717Z,10.40
2017-12-04T17:01:59.219Z,10.40
2017-12-04T17:03:39.240Z,10.40
2017-12-04T17:05:18.610Z,10.40
2017-12-04T17:06:57.013Z,10.40
2017-12-04T17:08:36.616Z,10.40
2017-12-04T17:10:18.126Z,10.40
2017-12-04T17:11:56.231Z,10.50
2017-12-04T17:13:35.125Z,10.40
2017-12-04T17:15:14.883Z,10.40
2017-12-04T17:16:56.032Z,10.30
2017-12-04T17:18:34.516Z,10.20
2017-12-04T17:21:49.339Z,10.30
2017-12-04T17:23:29.628Z,10.30
2017-12-04T17:25:10.219Z,10.40
2017-12-04T17:26:51.750Z,10.40
2017-12-04T17:28:31.021Z,10.40
2017-12-04T17:30:10.522Z,10.30
2017-12-04T17:31:49.421Z,10.20
2017-12-04T17:33:29.420Z,10.00
2017-12-04T17:35:13.325Z,9.90
2017-12-04T17:36:56.685Z,10.10
2017-12-04T17:38:41.323Z,10.20
2017-12-04T17:40:20.956Z,10.20
2017-12-04T17:42:09.607Z,10.20
2017-12-04T17:43:50.027Z,10.20
2017-12-04T17:45:34.660Z,10.40
2017-12-04T17:47:16.803Z,10.60
2017-12-04T17:48:56.100Z,10.70
2017-12-04T17:50:37.897Z,10.80
2017-12-04T17:52:30.389Z,10.80
2017-12-04T17:54:25.707Z,10.60
2017-12-04T17:56:32.955Z,10.40
2017-12-04T17:58:20.188Z,10.30
2017-12-04T18:00:00.309Z,10.10
2017-12-04T18:01:42.486Z,10.10
2017-12-04T18:04:08.708Z,10.00
2017-12-04T18:05:52.375Z,10.00
2017-12-04T18:07:33.597Z,9.80
2017-12-04T18:09:19.692Z,9.70
2017-12-04T18:11:03.531Z,9.70
2017-12-04T18:12:43.705Z,9.90
2017-12-04T18:14:23.518Z,10.10
2017-12-04T18:16:07.795Z,10.20
2017-12-04T18:17:47.393Z,10.30
2017-12-04T18:19:32.784Z,10.30
2017-12-04T18:21:14.882Z,10.40
2017-12-04T18:23:01.389Z,10.50
2017-12-04T18:24:39.498Z,10.50
2017-12-04T18:26:16.939Z,10.40
2017-12-04T18:27:55.378Z,10.30
2017-12-04T18:31:38.894Z,10.30
2017-12-04T18:33:19.102Z,10.40
2017-12-04T18:34:58.519Z,10.30
2017-12-04T18:36:38.615Z,10.10
2017-12-04T18:38:17.433Z,10.10
2017-12-04T18:39:57.336Z,10.10
2017-12-04T18:41:38.227Z,10.00
2017-12-04T18:43:22.346Z,10.00
2017-12-04T18:45:02.439Z,10.10
2017-12-04T18:46:43.339Z,10.00
2017-12-04T18:48:26.841Z,9.90
2017-12-04T18:50:09.441Z,9.90
2017-12-04T18:51:49.154Z,10.10
2017-12-04T18:53:30.006Z,10.20
2017-12-04T18:55:09.855Z,10.30
2017-12-04T18:56:50.049Z,10.30
2017-12-04T18:58:31.457Z,10.40
2017-12-04T19:00:11.249Z,10.50
2017-12-04T19:01:48.236Z,10.60
2017-12-04T19:03:28.577Z,10.60
2017-12-04T19:05:07.774Z,10.60
2017-12-04T19:06:47.470Z,10.60
2017-12-04T19:08:31.058Z,10.60
2017-12-04T19:10:08.545Z,10.60
2017-12-04T19:11:45.382Z,10.40
2017-12-04T19:13:24.083Z,10.50
2017-12-04T19:15:04.977Z,10.60
2017-12-04T19:16:44.476Z,10.50
2017-12-04T19:18:25.288Z,10.50
2017-12-04T19:20:09.100Z,10.50
2017-12-04T19:21:50.586Z,10.40
2017-12-04T19:23:33.807Z,10.50
2017-12-04T19:25:13.698Z,10.40
2017-12-04T19:26:50.769Z,10.10
2017-12-04T19:28:40.947Z,10.10
2017-12-04T19:30:22.220Z,10.00
2017-12-04T19:32:04.817Z,10.00
2017-12-04T19:33:45.505Z,9.70
2017-12-04T19:35:27.007Z,9.70
2017-12-04T19:37:06.739Z,9.80
2017-12-04T19:40:17.661Z,9.90
2017-12-04T19:41:58.091Z,10.00
2017-12-04T19:43:38.321Z,9.90
2017-12-04T19:45:22.695Z,9.80
2017-12-04T19:47:19.079Z,9.80
2017-12-04T19:49:04.858Z,9.50
2017-12-04T19:50:46.327Z,9.50
2017-12-04T19:52:29.993Z,9.50
2017-12-04T19:54:13.368Z,9.50
2017-12-04T19:55:54.838Z,9.50
2017-12-04T19:57:33.246Z,9.70
2017-12-04T19:59:12.582Z,9.80
2017-12-04T20:00:57.109Z,9.90
2017-12-04T20:02:39.136Z,9.90
2017-12-04T20:04:21.495Z,9.80
2017-12-04T20:06:04.432Z,9.70
2017-12-04T20:08:06.032Z,9.70
2017-12-04T20:09:46.109Z,10.00
2017-12-04T20:13:11.192Z,10.10
2017-12-04T20:14:54.359Z,10.00
2017-12-04T20:16:38.363Z,10.10
2017-12-04T20:18:19.577Z,10.20
2017-12-04T20:20:02.555Z,10.00
2017-12-04T20:21:42.974Z,10.00
2017-12-04T20:23:23.759Z,10.00
2017-12-04T20:25:04.259Z,10.00
2017-12-04T20:26:45.150Z,10.00
2017-12-04T20:28:25.659Z,9.80
2017-12-04T20:30:06.755Z,9.80
2017-12-04T20:31:48.156Z,9.80
2017-12-04T20:33:28.946Z,9.90
2017-12-04T20:35:12.694Z,10.00
2017-12-04T20:36:52.251Z,10.00
2017-12-04T20:38:33.547Z,10.00
2017-12-04T20:40:13.232Z,10.20
2017-12-04T20:41:53.649Z,10.30
2017-12-04T20:43:32.562Z,10.30
2017-12-04T20:45:12.648Z,10.20
2017-12-04T20:46:53.751Z,10.00
2017-12-04T20:48:33.074Z,9.90
2017-12-04T20:50:12.762Z,9.40
2017-12-04T20:51:52.820Z,9.40
2017-12-04T20:53:31.868Z,9.50
2017-12-04T20:55:11.588Z,9.50
2017-12-04T20:56:54.675Z,9.60
2017-12-04T20:58:33.774Z,9.60
2017-12-04T21:00:16.011Z,9.70
2017-12-04T21:01:53.649Z,9.70
2017-12-04T21:03:35.399Z,9.90
2017-12-04T21:05:15.197Z,9.90
2017-12-04T21:06:55.286Z,9.90
2017-12-04T21:08:48.485Z,10.00
2017-12-04T21:12:39.287Z,9.90
2017-12-04T21:16:37.991Z,9.90
2017-12-04T21:18:30.251Z,9.80
2017-12-04T21:20:15.495Z,9.70
2017-12-04T21:22:01.437Z,9.60
2017-12-04T21:23:42.670Z,9.50
2017-12-04T21:25:23.272Z,9.70
2017-12-04T21:27:02.471Z,9.90
2017-12-04T21:28:43.185Z,10.00
2017-12-04T21:30:22.481Z,9.80
2017-12-04T21:32:08.090Z,9.80
2017-12-04T21:33:46.961Z,9.70
2017-12-04T21:35:27.499Z,9.70
2017-12-04T21:39:00.756Z,9.60
2017-12-04T21:40:39.360Z,9.50
2017-12-04T21:42:19.890Z,9.40
2017-12-04T21:43:59.982Z,9.40
2017-12-04T21:45:37.532Z,9.20
2017-12-04T21:47:23.022Z,9.50
2017-12-04T21:49:19.462Z,9.50
2017-12-04T21:51:00.065Z,9.50
2017-12-04T21:52:40.890Z,9.60
2017-12-04T21:54:23.034Z,9.70
2017-12-04T21:56:02.071Z,9.50
2017-12-04T21:57:42.977Z,9.40
2017-12-04T21:59:21.891Z,9.50
2017-12-04T22:01:03.207Z,9.50
2017-12-04T22:04:40.308Z,9.30
2017-12-04T22:06:19.111Z,9.40
2017-12-04T22:09:44.811Z,9.70
2017-12-04T22:12:58.530Z,9.80
2017-12-04T22:14:40.647Z,9.60
2017-12-04T22:16:23.386Z,9.60
2017-12-04T22:18:08.024Z,9.70
2017-12-04T22:19:47.938Z,9.50
2017-12-04T22:21:31.234Z,9.00
2017-12-04T22:23:18.955Z,8.90
2017-12-04T22:25:00.625Z,8.80
2017-12-04T22:26:39.936Z,9.10
2017-12-04T22:28:22.649Z,9.40
2017-12-04T22:30:05.442Z,9.50
2017-12-04T22:31:46.037Z,9.50
2017-12-04T22:33:27.837Z,9.90
2017-12-04T22:35:06.013Z,9.90
2017-12-04T22:36:45.410Z,10.00
2017-12-04T22:40:16.104Z,9.60
2017-12-04T22:41:58.611Z,9.60
2017-12-04T22:43:35.703Z,9.60